sensor_id;sensor_type;location;lat;lon;timestamp;pressure;altitude;pressure_sealevel;temperature;humidity
4590;BME280;2307;48.448;9.216;2024-02-14T00:01:55;95802.88;;;6.80;100.00
4590;BME280;2307;48.448;9.216;2024-02-14T00:04:23;95808.34;;;6.85;100.00
4590;BME280;2307;48.448;9.216;2024-02-14T00:06:49;95807.56;;;6.84;100.00
4590;BME280;2307;48.448;9.216;2024-02-14T00:09:16;95810.38;;;6.89;100.00
4590;BME280;2307;48.448;9.216;2024-02-14T00:11:42;95815.44;;;6.91;100.00
4590;BME280;2307;48.448;9.216;2024-02-14T00:14:09;95809.97;;;6.86;100.00
4590;BME280;2307;48.448;9.216;2024-02-14T00:16:35;95811.56;;;6.80;100.00
4590;BME280;2307;48.448;9.216;2024-02-14T00:19:04;95814.38;;;6.79;100.00
4590;BME280;2307;48.448;9.216;2024-02-14T00:21:31;95812.38;;;6.81;100.00
4590;BME280;2307;48.448;9.216;2024-02-14T00:23:59;95816.00;;;6.80;100.00
4590;BME280;2307;48.448;9.216;2024-02-14T00:26:25;95813.78;;;6.83;100.00
4590;BME280;2307;48.448;9.216;2024-02-14T00:28:52;95809.97;;;6.86;100.00
4590;BME280;2307;48.448;9.216;2024-02-14T00:31:18;95813.22;;;6.88;100.00
4590;BME280;2307;48.448;9.216;2024-02-14T00:33:44;95813.22;;;6.88;100.00
4590;BME280;2307;48.448;9.216;2024-02-14T00:36:11;95809.16;;;6.92;100.00
4590;BME280;2307;48.448;9.216;2024-02-14T00:38:39;95814.00;;;6.95;100.00
4590;BME280;2307;48.448;9.216;2024-02-14T00:41:05;95818.66;;;7.00;100.00
4590;BME280;2307;48.448;9.216;2024-02-14T00:43:32;95815.59;;;6.83;100.00
4590;BME280;2307;48.448;9.216;2024-02-14T00:45:58;95814.63;;;6.84;100.00
4590;BME280;2307;48.448;9.216;2024-02-14T00:48:24;95816.63;;;6.75;100.00
4590;BME280;2307;48.448;9.216;2024-02-14T00:50:51;95817.63;;;6.74;100.00
4590;BME280;2307;48.448;9.216;2024-02-14T00:53:17;95821.47;;;6.72;100.00
4590;BME280;2307;48.448;9.216;2024-02-14T00:55:45;95820.44;;;6.73;100.00
4590;BME280;2307;48.448;9.216;2024-02-14T00:58:11;95817.41;;;6.69;100.00
4590;BME280;2307;48.448;9.216;2024-02-14T01:00:38;95821.66;;;6.77;100.00
4590;BME280;2307;48.448;9.216;2024-02-14T01:03:06;95821.84;;;6.82;100.00
4590;BME280;2307;48.448;9.216;2024-02-14T01:05:34;95826.53;;;6.86;100.00
4590;BME280;2307;48.448;9.216;2024-02-14T01:08:00;95826.31;;;7.01;100.00
4590;BME280;2307;48.448;9.216;2024-02-14T01:10:27;95825.28;;;6.82;100.00
4590;BME280;2307;48.448;9.216;2024-02-14T01:12:54;95824.31;;;6.90;100.00
4590;BME280;2307;48.448;9.216;2024-02-14T01:15:21;95828.56;;;6.91;100.00
4590;BME280;2307;48.448;9.216;2024-02-14T01:17:48;95825.72;;;6.99;100.00
4590;BME280;2307;48.448;9.216;2024-02-14T01:20:14;95826.53;;;7.06;100.00
4590;BME280;2307;48.448;9.216;2024-02-14T01:22:41;95831.38;;;7.16;100.00
4590;BME280;2307;48.448;9.216;2024-02-14T01:25:08;95822.06;;;7.26;100.00
4590;BME280;2307;48.448;9.216;2024-02-14T01:27:35;95829.53;;;7.29;100.00
4590;BME280;2307;48.448;9.216;2024-02-14T01:30:03;95828.75;;;7.35;100.00
4590;BME280;2307;48.448;9.216;2024-02-14T01:32:30;95821.06;;;7.40;100.00
4590;BME280;2307;48.448;9.216;2024-02-14T01:34:57;95807.91;;;7.47;100.00
4590;BME280;2307;48.448;9.216;2024-02-14T01:37:24;95822.66;;;7.55;100.00
4590;BME280;2307;48.448;9.216;2024-02-14T01:39:51;95823.66;;;7.54;100.00
4590;BME280;2307;48.448;9.216;2024-02-14T01:42:17;95814.16;;;7.53;100.00
4590;BME280;2307;48.448;9.216;2024-02-14T01:44:43;95804.63;;;7.52;100.00
4590;BME280;2307;48.448;9.216;2024-02-14T01:47:11;95812.16;;;7.55;100.00
4590;BME280;2307;48.448;9.216;2024-02-14T01:49:37;95812.75;;;7.57;100.00
4590;BME280;2307;48.448;9.216;2024-02-14T01:52:04;95815.97;;;7.59;100.00
4590;BME280;2307;48.448;9.216;2024-02-14T01:54:31;95820.00;;;7.61;100.00
4590;BME280;2307;48.448;9.216;2024-02-14T01:56:58;95819.63;;;7.58;100.00
4590;BME280;2307;48.448;9.216;2024-02-14T01:59:25;95815.97;;;7.59;100.00
4590;BME280;2307;48.448;9.216;2024-02-14T02:01:52;95805.44;;;7.65;100.00
4590;BME280;2307;48.448;9.216;2024-02-14T02:04:20;95804.63;;;7.65;100.00
4590;BME280;2307;48.448;9.216;2024-02-14T02:06:46;95804.00;;;7.69;100.00
4590;BME280;2307;48.448;9.216;2024-02-14T02:09:13;95803.78;;;7.71;100.00
4590;BME280;2307;48.448;9.216;2024-02-14T02:11:45;95787.59;;;7.74;100.00
4590;BME280;2307;48.448;9.216;2024-02-14T02:14:13;95792.06;;;7.80;100.00
4590;BME280;2307;48.448;9.216;2024-02-14T02:16:39;95784.34;;;7.85;100.00
4590;BME280;2307;48.448;9.216;2024-02-14T02:19:06;95803.38;;;7.74;100.00
4590;BME280;2307;48.448;9.216;2024-02-14T02:21:35;95808.69;;;7.61;100.00
4590;BME280;2307;48.448;9.216;2024-02-14T02:24:04;95800.59;;;7.56;100.00
4590;BME280;2307;48.448;9.216;2024-02-14T02:26:30;95809.53;;;7.55;100.00
4590;BME280;2307;48.448;9.216;2024-02-14T02:28:56;95804.84;;;7.57;100.00
4590;BME280;2307;48.448;9.216;2024-02-14T02:31:24;95812.16;;;7.55;100.00
4590;BME280;2307;48.448;9.216;2024-02-14T02:33:51;95804.84;;;7.57;100.00
4590;BME280;2307;48.448;9.216;2024-02-14T02:36:18;95806.66;;;7.63;100.00
4590;BME280;2307;48.448;9.216;2024-02-14T02:38:44;95792.91;;;7.61;100.00
4590;BME280;2307;48.448;9.216;2024-02-14T02:41:12;95790.50;;;7.59;100.00
4590;BME280;2307;48.448;9.216;2024-02-14T02:43:38;95785.63;;;7.63;100.00
4590;BME280;2307;48.448;9.216;2024-02-14T02:46:04;95781.19;;;7.57;100.00
4590;BME280;2307;48.448;9.216;2024-02-14T02:48:33;95773.91;;;7.59;100.00
4590;BME280;2307;48.448;9.216;2024-02-14T02:50:59;95776.97;;;7.49;100.00
4590;BME280;2307;48.448;9.216;2024-02-14T02:53:26;95773.34;;;7.43;100.00
4590;BME280;2307;48.448;9.216;2024-02-14T02:55:52;95770.72;;;7.43;100.00
4590;BME280;2307;48.448;9.216;2024-02-14T02:58:20;95764.88;;;7.41;100.00
4590;BME280;2307;48.448;9.216;2024-02-14T03:00:47;95763.66;;;7.44;100.00
4590;BME280;2307;48.448;9.216;2024-02-14T03:03:14;95758.78;;;7.47;100.00
4590;BME280;2307;48.448;9.216;2024-02-14T03:05:41;95763.22;;;7.54;100.00
4590;BME280;2307;48.448;9.216;2024-02-14T03:08:09;95753.91;;;7.58;100.00
4590;BME280;2307;48.448;9.216;2024-02-14T03:10:38;95749.63;;;7.63;100.00
4590;BME280;2307;48.448;9.216;2024-02-14T03:13:05;95744.78;;;7.67;100.00
4590;BME280;2307;48.448;9.216;2024-02-14T03:15:34;95748.38;;;7.72;100.00
4590;BME280;2307;48.448;9.216;2024-02-14T03:18:01;95752.00;;;7.78;95.95
4590;BME280;2307;48.448;9.216;2024-02-14T03:20:30;95749.19;;;7.79;92.38
4590;BME280;2307;48.448;9.216;2024-02-14T03:22:57;95739.28;;;7.75;100.00
4590;BME280;2307;48.448;9.216;2024-02-14T03:25:23;95740.50;;;7.72;100.00
4590;BME280;2307;48.448;9.216;2024-02-14T03:27:49;95737.28;;;7.70;97.70
4590;BME280;2307;48.448;9.216;2024-02-14T03:30:18;95748.16;;;7.74;92.15
4590;BME280;2307;48.448;9.216;2024-02-14T03:32:46;95751.41;;;7.76;91.46
4590;BME280;2307;48.448;9.216;2024-02-14T03:35:13;95752.22;;;7.76;93.42
4590;BME280;2307;48.448;9.216;2024-02-14T03:37:40;95749.19;;;7.73;95.31
4590;BME280;2307;48.448;9.216;2024-02-14T03:40:08;95771.47;;;7.70;96.62
4590;BME280;2307;48.448;9.216;2024-02-14T03:42:34;95765.38;;;7.70;97.15
4590;BME280;2307;48.448;9.216;2024-02-14T03:45:01;95781.59;;;7.67;95.93
4590;BME280;2307;48.448;9.216;2024-02-14T03:47:30;95777.31;;;7.66;95.74
4590;BME280;2307;48.448;9.216;2024-02-14T03:49:59;95790.09;;;7.56;97.17
4590;BME280;2307;48.448;9.216;2024-02-14T03:52:25;95794.78;;;7.40;100.00
4590;BME280;2307;48.448;9.216;2024-02-14T03:54:51;95793.16;;;7.39;96.78
4590;BME280;2307;48.448;9.216;2024-02-14T03:57:18;95790.75;;;7.38;94.77
4590;BME280;2307;48.448;9.216;2024-02-14T03:59:44;95799.44;;;7.38;92.45
4590;BME280;2307;48.448;9.216;2024-02-14T04:02:11;95804.88;;;7.37;91.82
4590;BME280;2307;48.448;9.216;2024-02-14T04:04:38;95806.09;;;7.41;92.25
4590;BME280;2307;48.448;9.216;2024-02-14T04:07:06;95805.88;;;7.49;96.19
4590;BME280;2307;48.448;9.216;2024-02-14T04:09:34;95806.88;;;7.55;91.99
4590;BME280;2307;48.448;9.216;2024-02-14T04:12:01;95804.03;;;7.56;90.65
4590;BME280;2307;48.448;9.216;2024-02-14T04:14:27;95811.31;;;7.61;87.61
4590;BME280;2307;48.448;9.216;2024-02-14T04:16:53;95796.56;;;7.60;89.13
4590;BME280;2307;48.448;9.216;2024-02-14T04:19:20;95796.56;;;7.60;92.32
4590;BME280;2307;48.448;9.216;2024-02-14T04:21:46;95792.31;;;7.59;90.51
4590;BME280;2307;48.448;9.216;2024-02-14T04:24:15;95793.94;;;7.46;86.97
4590;BME280;2307;48.448;9.216;2024-02-14T04:26:41;95793.56;;;7.43;93.42
4590;BME280;2307;48.448;9.216;2024-02-14T04:29:07;95787.31;;;7.37;100.00
4590;BME280;2307;48.448;9.216;2024-02-14T04:31:34;95796.59;;;7.33;94.21
4590;BME280;2307;48.448;9.216;2024-02-14T04:34:00;95805.88;;;7.29;93.41
4590;BME280;2307;48.448;9.216;2024-02-14T04:36:27;95791.34;;;7.27;91.69
4590;BME280;2307;48.448;9.216;2024-02-14T04:38:54;95785.91;;;7.22;87.36
4590;BME280;2307;48.448;9.216;2024-02-14T04:41:23;95775.59;;;7.20;86.92
4590;BME280;2307;48.448;9.216;2024-02-14T04:43:49;95778.44;;;7.19;93.15
4590;BME280;2307;48.448;9.216;2024-02-14T04:46:15;95781.66;;;7.14;98.43
4590;BME280;2307;48.448;9.216;2024-02-14T04:48:42;95789.75;;;7.13;88.21
4590;BME280;2307;48.448;9.216;2024-02-14T04:51:08;95806.34;;;7.13;86.12
4590;BME280;2307;48.448;9.216;2024-02-14T04:53:35;95806.75;;;7.10;90.62
4590;BME280;2307;48.448;9.216;2024-02-14T04:56:01;95808.75;;;7.08;92.42
4590;BME280;2307;48.448;9.216;2024-02-14T04:58:29;95817.25;;;7.04;94.09
4590;BME280;2307;48.448;9.216;2024-02-14T05:00:55;95822.09;;;7.00;93.83
4590;BME280;2307;48.448;9.216;2024-02-14T05:03:21;95823.69;;;7.01;96.06
4590;BME280;2307;48.448;9.216;2024-02-14T05:05:49;95834.59;;;6.98;96.30
4590;BME280;2307;48.448;9.216;2024-02-14T05:08:15;95834.59;;;6.98;97.42
4590;BME280;2307;48.448;9.216;2024-02-14T05:10:42;95839.84;;;6.98;96.90
4590;BME280;2307;48.448;9.216;2024-02-14T05:13:08;95840.88;;;6.84;100.00
4590;BME280;2307;48.448;9.216;2024-02-14T05:15:36;95842.28;;;6.86;100.00
4590;BME280;2307;48.448;9.216;2024-02-14T05:18:03;95846.31;;;6.89;100.00
4590;BME280;2307;48.448;9.216;2024-02-14T05:20:30;95848.75;;;6.90;100.00
4590;BME280;2307;48.448;9.216;2024-02-14T05:22:57;95848.34;;;6.93;100.00
4590;BME280;2307;48.448;9.216;2024-02-14T05:25:23;95851.97;;;6.99;100.00
4590;BME280;2307;48.448;9.216;2024-02-14T05:27:49;95844.69;;;7.01;100.00
4590;BME280;2307;48.448;9.216;2024-02-14T05:30:16;95841.88;;;7.09;100.00
4590;BME280;2307;48.448;9.216;2024-02-14T05:32:43;95849.97;;;7.14;100.00
4590;BME280;2307;48.448;9.216;2024-02-14T05:35:10;95845.13;;;7.11;100.00
4590;BME280;2307;48.448;9.216;2024-02-14T05:37:36;95843.50;;;7.10;100.00
4590;BME280;2307;48.448;9.216;2024-02-14T05:40:03;95835.22;;;7.07;100.00
4590;BME280;2307;48.448;9.216;2024-02-14T05:42:31;95835.41;;;7.12;100.00
4590;BME280;2307;48.448;9.216;2024-02-14T05:44:59;95818.44;;;7.14;100.00
4590;BME280;2307;48.448;9.216;2024-02-14T05:47:28;95817.22;;;7.23;100.00
4590;BME280;2307;48.448;9.216;2024-02-14T05:49:56;95825.31;;;7.22;100.00
4590;BME280;2307;48.448;9.216;2024-02-14T05:52:22;95821.88;;;7.21;100.00
4590;BME280;2307;48.448;9.216;2024-02-14T05:54:49;95814.22;;;7.20;100.00
4590;BME280;2307;48.448;9.216;2024-02-14T05:57:15;95818.03;;;7.17;100.00
4590;BME280;2307;48.448;9.216;2024-02-14T05:59:41;95818.84;;;7.18;100.00
4590;BME280;2307;48.448;9.216;2024-02-14T06:02:08;95822.28;;;7.18;100.00
4590;BME280;2307;48.448;9.216;2024-02-14T06:04:35;95814.59;;;7.17;100.00
4590;BME280;2307;48.448;9.216;2024-02-14T06:07:02;95808.16;;;7.19;100.00
4590;BME280;2307;48.448;9.216;2024-02-14T06:09:31;95809.56;;;7.15;100.00
4590;BME280;2307;48.448;9.216;2024-02-14T06:11:58;95813.19;;;7.14;100.00
4590;BME280;2307;48.448;9.216;2024-02-14T06:14:24;95818.84;;;7.18;100.00
4590;BME280;2307;48.448;9.216;2024-02-14T06:16:50;95816.63;;;7.21;100.00
4590;BME280;2307;48.448;9.216;2024-02-14T06:19:17;95819.47;;;7.20;100.00
4590;BME280;2307;48.448;9.216;2024-02-14T06:21:43;95816.22;;;7.24;100.00
4590;BME280;2307;48.448;9.216;2024-02-14T06:24:11;95816.22;;;7.31;100.00
4590;BME280;2307;48.448;9.216;2024-02-14T06:26:38;95822.88;;;7.33;100.00
4590;BME280;2307;48.448;9.216;2024-02-14T06:29:04;95823.69;;;7.40;100.00
4590;BME280;2307;48.448;9.216;2024-02-14T06:31:31;95819.63;;;7.44;100.00
4590;BME280;2307;48.448;9.216;2024-02-14T06:33:57;95818.19;;;7.48;100.00
4590;BME280;2307;48.448;9.216;2024-02-14T06:36:24;95821.84;;;7.54;100.00
4590;BME280;2307;48.448;9.216;2024-02-14T06:38:50;95826.88;;;7.62;100.00
4590;BME280;2307;48.448;9.216;2024-02-14T06:41:18;95828.69;;;7.68;100.00
4590;BME280;2307;48.448;9.216;2024-02-14T06:43:45;95831.72;;;7.72;100.00
4590;BME280;2307;48.448;9.216;2024-02-14T06:46:11;95833.72;;;7.76;100.00
4590;BME280;2307;48.448;9.216;2024-02-14T06:48:38;95838.19;;;7.76;100.00
4590;BME280;2307;48.448;9.216;2024-02-14T06:51:06;95835.53;;;7.76;100.00
4590;BME280;2307;48.448;9.216;2024-02-14T06:53:32;95840.59;;;7.77;100.00
4590;BME280;2307;48.448;9.216;2024-02-14T06:55:58;95839.38;;;7.80;100.00
4590;BME280;2307;48.448;9.216;2024-02-14T06:58:26;95840.97;;;7.81;100.00
4590;BME280;2307;48.448;9.216;2024-02-14T07:00:53;95839.97;;;7.82;100.00
4590;BME280;2307;48.448;9.216;2024-02-14T07:03:19;95844.81;;;7.85;100.00
4590;BME280;2307;48.448;9.216;2024-02-14T07:05:45;95828.81;;;7.86;100.00
4590;BME280;2307;48.448;9.216;2024-02-14T07:08:12;95832.47;;;7.92;100.00
4590;BME280;2307;48.448;9.216;2024-02-14T07:10:39;95841.53;;;7.96;100.00
4590;BME280;2307;48.448;9.216;2024-02-14T07:13:05;95847.19;;;7.99;100.00
4590;BME280;2307;48.448;9.216;2024-02-14T07:15:33;95842.16;;;7.98;100.00
4590;BME280;2307;48.448;9.216;2024-02-14T07:17:59;95844.16;;;7.96;100.00
4590;BME280;2307;48.448;9.216;2024-02-14T07:20:25;95849.41;;;8.02;100.00
4590;BME280;2307;48.448;9.216;2024-02-14T07:22:52;95853.25;;;8.00;100.00
4590;BME280;2307;48.448;9.216;2024-02-14T07:25:20;95862.22;;;7.92;100.00
4590;BME280;2307;48.448;9.216;2024-02-14T07:27:46;95864.44;;;7.89;100.00
4590;BME280;2307;48.448;9.216;2024-02-14T07:30:14;95872.09;;;7.90;100.00
4590;BME280;2307;48.448;9.216;2024-02-14T07:32:42;95875.13;;;7.94;100.00
4590;BME280;2307;48.448;9.216;2024-02-14T07:35:09;95887.06;;;7.90;100.00
4590;BME280;2307;48.448;9.216;2024-02-14T07:37:36;95886.31;;;7.83;100.00
4590;BME280;2307;48.448;9.216;2024-02-14T07:40:03;95891.56;;;7.83;100.00
4590;BME280;2307;48.448;9.216;2024-02-14T07:42:30;95888.53;;;7.86;100.00
4590;BME280;2307;48.448;9.216;2024-02-14T07:44:56;95896.59;;;7.91;100.00
4590;BME280;2307;48.448;9.216;2024-02-14T07:47:23;95895.56;;;7.98;100.00
4590;BME280;2307;48.448;9.216;2024-02-14T07:49:50;95888.66;;;8.04;100.00
4590;BME280;2307;48.448;9.216;2024-02-14T07:52:18;95898.97;;;8.12;100.00
4590;BME280;2307;48.448;9.216;2024-02-14T07:54:44;95891.84;;;8.26;100.00
4590;BME280;2307;48.448;9.216;2024-02-14T07:57:10;95895.84;;;8.41;100.00
4590;BME280;2307;48.448;9.216;2024-02-14T07:59:37;95894.44;;;8.45;100.00
4590;BME280;2307;48.448;9.216;2024-02-14T08:02:03;95897.84;;;8.52;100.00
4590;BME280;2307;48.448;9.216;2024-02-14T08:04:30;95890.41;;;8.43;100.00
4590;BME280;2307;48.448;9.216;2024-02-14T08:06:57;95901.94;;;8.42;100.00
4590;BME280;2307;48.448;9.216;2024-02-14T08:09:24;95894.47;;;8.32;100.00
4590;BME280;2307;48.448;9.216;2024-02-14T08:11:50;95891.59;;;8.40;100.00
4590;BME280;2307;48.448;9.216;2024-02-14T08:14:18;95895.84;;;8.41;100.00
4590;BME280;2307;48.448;9.216;2024-02-14T08:16:44;95895.03;;;8.47;100.00
4590;BME280;2307;48.448;9.216;2024-02-14T08:19:11;95897.22;;;8.57;100.00
4590;BME280;2307;48.448;9.216;2024-02-14T08:21:37;95904.28;;;8.57;100.00
4590;BME280;2307;48.448;9.216;2024-02-14T08:24:05;95902.88;;;8.61;100.00
4590;BME280;2307;48.448;9.216;2024-02-14T08:26:31;95898.53;;;8.73;100.00
4590;BME280;2307;48.448;9.216;2024-02-14T08:28:58;95890.38;;;8.87;100.00
4590;BME280;2307;48.448;9.216;2024-02-14T08:31:25;95895.34;;;9.02;100.00
4590;BME280;2307;48.448;9.216;2024-02-14T08:33:51;95898.13;;;9.07;100.00
4590;BME280;2307;48.448;9.216;2024-02-14T08:36:18;95902.94;;;9.17;100.00
4590;BME280;2307;48.448;9.216;2024-02-14T08:38:45;95892.97;;;9.25;100.00
4590;BME280;2307;48.448;9.216;2024-02-14T08:41:13;95907.91;;;9.31;100.00
4590;BME280;2307;48.448;9.216;2024-02-14T08:43:39;95902.81;;;9.36;100.00
4590;BME280;2307;48.448;9.216;2024-02-14T08:46:08;95910.72;;;9.36;100.00
4590;BME280;2307;48.448;9.216;2024-02-14T08:48:35;95915.13;;;9.42;100.00
4590;BME280;2307;48.448;9.216;2024-02-14T08:51:05;95925.84;;;9.47;100.00
4590;BME280;2307;48.448;9.216;2024-02-14T08:53:32;95912.06;;;9.45;100.00
4590;BME280;2307;48.448;9.216;2024-02-14T08:55:58;95913.47;;;9.48;100.00
4590;BME280;2307;48.448;9.216;2024-02-14T08:58:26;95914.44;;;9.53;100.00
4590;BME280;2307;48.448;9.216;2024-02-14T09:00:52;95921.06;;;9.63;100.00
4590;BME280;2307;48.448;9.216;2024-02-14T09:03:19;95924.44;;;9.70;100.00
4590;BME280;2307;48.448;9.216;2024-02-14T09:05:45;95911.84;;;9.72;100.00
4590;BME280;2307;48.448;9.216;2024-02-14T09:08:12;95923.84;;;9.68;100.00
4590;BME280;2307;48.448;9.216;2024-02-14T09:10:39;95922.25;;;9.67;100.00
4590;BME280;2307;48.448;9.216;2024-02-14T09:13:05;95928.69;;;9.71;100.00
4590;BME280;2307;48.448;9.216;2024-02-14T09:15:34;95930.25;;;9.78;100.00
4590;BME280;2307;48.448;9.216;2024-02-14T09:18:00;95927.41;;;9.80;100.00
4590;BME280;2307;48.448;9.216;2024-02-14T09:20:28;95927.69;;;9.90;100.00
4590;BME280;2307;48.448;9.216;2024-02-14T09:22:55;95933.28;;;10.00;100.00
4590;BME280;2307;48.448;9.216;2024-02-14T09:25:21;95957.22;;;10.05;100.00
4590;BME280;2307;48.448;9.216;2024-02-14T09:27:48;95939.44;;;10.19;100.00
4590;BME280;2307;48.448;9.216;2024-02-14T09:30:14;95937.34;;;10.27;100.00
4590;BME280;2307;48.448;9.216;2024-02-14T09:32:44;95936.00;;;10.36;100.00
4590;BME280;2307;48.448;9.216;2024-02-14T09:35:10;95934.41;;;10.35;100.00
4590;BME280;2307;48.448;9.216;2024-02-14T09:37:36;95945.09;;;10.40;100.00
4590;BME280;2307;48.448;9.216;2024-02-14T09:40:04;95934.47;;;10.47;100.00
4590;BME280;2307;48.448;9.216;2024-02-14T09:42:32;95928.53;;;10.51;100.00
4590;BME280;2307;48.448;9.216;2024-02-14T09:45:01;95932.47;;;10.60;100.00
4590;BME280;2307;48.448;9.216;2024-02-14T09:47:28;95942.41;;;10.65;100.00
4590;BME280;2307;48.448;9.216;2024-02-14T09:49:59;95946.41;;;10.68;100.00
4590;BME280;2307;48.448;9.216;2024-02-14T09:52:25;95938.91;;;10.83;100.00
4590;BME280;2307;48.448;9.216;2024-02-14T09:54:52;95934.13;;;10.91;100.00
4590;BME280;2307;48.448;9.216;2024-02-14T09:57:19;95940.63;;;11.07;100.00
4590;BME280;2307;48.448;9.216;2024-02-14T09:59:47;95938.13;;;11.12;100.00
4590;BME280;2307;48.448;9.216;2024-02-14T10:02:14;95942.63;;;11.23;100.00
4590;BME280;2307;48.448;9.216;2024-02-14T10:04:42;95940.59;;;11.25;100.00
4590;BME280;2307;48.448;9.216;2024-02-14T10:07:10;95931.03;;;11.24;100.00
4590;BME280;2307;48.448;9.216;2024-02-14T10:09:40;95940.13;;;11.28;100.00
4590;BME280;2307;48.448;9.216;2024-02-14T10:12:07;95930.13;;;11.30;100.00
4590;BME280;2307;48.448;9.216;2024-02-14T10:14:34;95932.09;;;11.35;100.00
4590;BME280;2307;48.448;9.216;2024-02-14T10:17:01;95930.69;;;11.32;100.00
4590;BME280;2307;48.448;9.216;2024-02-14T10:19:28;95927.63;;;11.35;100.00
4590;BME280;2307;48.448;9.216;2024-02-14T10:21:57;95934.41;;;11.31;100.00
4590;BME280;2307;48.448;9.216;2024-02-14T10:24:26;95930.13;;;11.30;100.00
4590;BME280;2307;48.448;9.216;2024-02-14T10:26:53;95930.59;;;11.27;100.00
4590;BME280;2307;48.448;9.216;2024-02-14T10:29:19;95925.75;;;11.24;100.00
4590;BME280;2307;48.448;9.216;2024-02-14T10:31:46;95924.47;;;11.27;100.00
4590;BME280;2307;48.448;9.216;2024-02-14T10:34:13;95926.19;;;11.21;100.00
4590;BME280;2307;48.448;9.216;2024-02-14T10:36:40;95914.16;;;11.25;100.00
4590;BME280;2307;48.448;9.216;2024-02-14T10:39:08;95928.28;;;11.31;100.00
4590;BME280;2307;48.448;9.216;2024-02-14T10:41:37;95923.00;;;11.31;100.00
4590;BME280;2307;48.448;9.216;2024-02-14T10:44:03;95928.66;;;11.34;100.00
4590;BME280;2307;48.448;9.216;2024-02-14T10:46:31;95909.69;;;11.37;100.00
4590;BME280;2307;48.448;9.216;2024-02-14T10:49:01;95914.63;;;11.45;100.00
4590;BME280;2307;48.448;9.216;2024-02-14T10:51:30;95913.50;;;11.53;100.00
4590;BME280;2307;48.448;9.216;2024-02-14T10:53:57;95914.16;;;11.78;100.00
4590;BME280;2307;48.448;9.216;2024-02-14T10:56:24;95920.03;;;11.92;100.00
4590;BME280;2307;48.448;9.216;2024-02-14T10:58:55;95913.91;;;12.03;100.00
4590;BME280;2307;48.448;9.216;2024-02-14T11:01:22;95919.22;;;12.03;100.00
4590;BME280;2307;48.448;9.216;2024-02-14T11:03:51;95923.94;;;12.12;100.00
4590;BME280;2307;48.448;9.216;2024-02-14T11:06:17;95913.34;;;12.12;100.00
4590;BME280;2307;48.448;9.216;2024-02-14T11:08:54;95920.47;;;12.23;100.00
4590;BME280;2307;48.448;9.216;2024-02-14T11:11:21;95914.84;;;12.20;100.00
4590;BME280;2307;48.448;9.216;2024-02-14T11:13:51;95917.50;;;12.20;100.00
4590;BME280;2307;48.448;9.216;2024-02-14T11:16:19;95917.25;;;12.21;100.00
4590;BME280;2307;48.448;9.216;2024-02-14T11:18:49;95913.53;;;12.34;100.00
4590;BME280;2307;48.448;9.216;2024-02-14T11:21:15;95920.78;;;12.50;100.00
4590;BME280;2307;48.448;9.216;2024-02-14T11:23:51;95933.00;;;12.51;100.00
4590;BME280;2307;48.448;9.216;2024-02-14T11:26:18;95923.31;;;12.45;100.00
4590;BME280;2307;48.448;9.216;2024-02-14T11:28:45;95914.47;;;12.28;100.00
4590;BME280;2307;48.448;9.216;2024-02-14T11:31:12;95923.34;;;12.22;100.00
4590;BME280;2307;48.448;9.216;2024-02-14T11:33:44;95921.72;;;12.21;100.00
4590;BME280;2307;48.448;9.216;2024-02-14T11:36:11;95928.19;;;12.25;100.00
4590;BME280;2307;48.448;9.216;2024-02-14T11:38:40;95928.88;;;12.32;100.00
4590;BME280;2307;48.448;9.216;2024-02-14T11:41:06;95932.88;;;12.46;100.00
4590;BME280;2307;48.448;9.216;2024-02-14T11:43:34;95930.56;;;12.50;100.00
4590;BME280;2307;48.448;9.216;2024-02-14T11:46:01;95937.91;;;12.59;100.00
4590;BME280;2307;48.448;9.216;2024-02-14T11:48:29;95928.97;;;12.89;100.00
4590;BME280;2307;48.448;9.216;2024-02-14T11:50:58;95928.97;;;12.89;100.00
4590;BME280;2307;48.448;9.216;2024-02-14T11:53:25;95924.69;;;12.99;100.00
4590;BME280;2307;48.448;9.216;2024-02-14T11:55:53;95923.28;;;13.08;100.00
4590;BME280;2307;48.448;9.216;2024-02-14T11:58:19;95916.81;;;13.16;100.00
4590;BME280;2307;48.448;9.216;2024-02-14T12:00:46;95922.81;;;13.11;100.00
4590;BME280;2307;48.448;9.216;2024-02-14T12:03:15;95928.75;;;12.78;100.00
4590;BME280;2307;48.448;9.216;2024-02-14T12:05:42;95925.91;;;12.80;100.00
4590;BME280;2307;48.448;9.216;2024-02-14T12:08:10;95932.28;;;12.96;100.00
4590;BME280;2307;48.448;9.216;2024-02-14T12:10:37;95927.50;;;13.21;100.00
4590;BME280;2307;48.448;9.216;2024-02-14T12:13:07;95925.41;;;13.23;100.00
4590;BME280;2307;48.448;9.216;2024-02-14T12:15:37;95922.91;;;13.05;100.00
4590;BME280;2307;48.448;9.216;2024-02-14T12:18:03;95917.63;;;13.05;100.00
4590;BME280;2307;48.448;9.216;2024-02-14T12:20:30;95934.00;;;13.02;100.00
4590;BME280;2307;48.448;9.216;2024-02-14T12:22:57;95930.25;;;12.86;100.00
4590;BME280;2307;48.448;9.216;2024-02-14T12:25:26;95929.63;;;12.96;100.00
4590;BME280;2307;48.448;9.216;2024-02-14T12:27:52;95924.47;;;12.89;100.00
4590;BME280;2307;48.448;9.216;2024-02-14T12:30:19;95930.50;;;12.73;100.00
4590;BME280;2307;48.448;9.216;2024-02-14T12:32:45;95927.78;;;12.68;100.00
4590;BME280;2307;48.448;9.216;2024-02-14T12:35:11;95917.31;;;12.61;100.00
4590;BME280;2307;48.448;9.216;2024-02-14T12:37:38;95919.44;;;12.76;100.00
4590;BME280;2307;48.448;9.216;2024-02-14T12:40:05;95916.09;;;12.81;100.00
4590;BME280;2307;48.448;9.216;2024-02-14T12:42:33;95915.44;;;13.02;100.00
4590;BME280;2307;48.448;9.216;2024-02-14T12:45:00;95938.34;;;13.08;100.00
4590;BME280;2307;48.448;9.216;2024-02-14T12:47:27;95920.97;;;13.12;100.00
4590;BME280;2307;48.448;9.216;2024-02-14T12:49:57;95927.66;;;13.03;100.00
4590;BME280;2307;48.448;9.216;2024-02-14T12:52:24;95921.28;;;13.04;100.00
4590;BME280;2307;48.448;9.216;2024-02-14T12:54:50;95921.94;;;13.22;100.00
4590;BME280;2307;48.448;9.216;2024-02-14T12:57:17;95919.16;;;13.46;100.00
4590;BME280;2307;48.448;9.216;2024-02-14T12:59:47;95926.28;;;13.57;100.00
4590;BME280;2307;48.448;9.216;2024-02-14T13:02:14;95921.28;;;13.60;100.00
4590;BME280;2307;48.448;9.216;2024-02-14T13:04:42;95919.59;;;13.88;100.00
4590;BME280;2307;48.448;9.216;2024-02-14T13:07:08;95916.34;;;14.19;100.00
4590;BME280;2307;48.448;9.216;2024-02-14T13:09:35;95914.69;;;14.51;100.00
4590;BME280;2307;48.448;9.216;2024-02-14T13:12:02;95907.22;;;14.70;100.00
4590;BME280;2307;48.448;9.216;2024-02-14T13:14:28;95912.97;;;14.62;100.00
4590;BME280;2307;48.448;9.216;2024-02-14T13:16:58;95923.22;;;14.53;100.00
4590;BME280;2307;48.448;9.216;2024-02-14T13:19:25;95922.19;;;14.54;100.00